createdAt,value
2023-04-01T00:00:42.002Z,10.90
2023-04-01T00:03:10.224Z,10.90
2023-04-01T00:05:38.254Z,10.80
2023-04-01T00:08:05.140Z,10.80
2023-04-01T00:10:34.937Z,10.80
2023-04-01T00:13:01.662Z,10.80
2023-04-01T00:15:29.717Z,10.80
2023-04-01T00:17:56.618Z,10.80
2023-04-01T00:20:25.516Z,10.80
2023-04-01T00:22:53.511Z,10.80
2023-04-01T00:25:23.171Z,10.70
2023-04-01T00:27:52.194Z,10.80
2023-04-01T00:30:19.837Z,10.80
2023-04-01T00:32:46.809Z,10.70
2023-04-01T00:35:18.318Z,10.70
2023-04-01T00:37:45.259Z,10.60
2023-04-01T00:40:31.155Z,10.60
2023-04-01T00:42:58.956Z,10.60
2023-04-01T00:45:36.473Z,10.70
2023-04-01T00:48:10.807Z,10.70
2023-04-01T00:50:45.455Z,10.70
2023-04-01T00:53:13.672Z,10.70
2023-04-01T00:55:46.177Z,10.70
2023-04-01T00:58:17.354Z,10.70
2023-04-01T01:00:47.194Z,10.70
2023-04-01T01:03:14.007Z,10.70
2023-04-01T01:06:11.189Z,10.60
2023-04-01T01:08:55.824Z,10.60
2023-04-01T01:11:44.261Z,10.70
2023-04-01T01:14:19.657Z,10.70
2023-04-01T01:16:56.793Z,10.70
2023-04-01T01:19:37.036Z,10.70
2023-04-01T01:22:24.730Z,10.70
2023-04-01T01:25:12.771Z,10.70
2023-04-01T01:27:47.801Z,10.70
2023-04-01T01:30:34.153Z,10.70
2023-04-01T01:33:26.277Z,10.70
2023-04-01T01:36:02.383Z,10.70
2023-04-01T01:38:33.499Z,10.70
2023-04-01T01:41:07.260Z,10.70
2023-04-01T01:43:40.202Z,10.60
2023-04-01T01:46:18.398Z,10.60
2023-04-01T01:48:47.017Z,10.60
2023-04-01T01:51:13.893Z,10.50
2023-04-01T01:53:40.604Z,10.50
2023-04-01T01:56:10.448Z,10.50
2023-04-01T01:58:47.999Z,10.50
2023-04-01T02:01:36.329Z,10.50
2023-04-01T02:04:16.586Z,10.50
2023-04-01T02:07:09.004Z,10.40
2023-04-01T02:09:53.306Z,10.40
2023-04-01T02:12:27.378Z,10.40
2023-04-01T02:15:17.786Z,10.40
2023-04-01T02:17:48.168Z,10.40
2023-04-01T02:20:25.845Z,10.40
2023-04-01T02:22:59.836Z,10.40
2023-04-01T02:25:35.964Z,10.40
2023-04-01T02:28:06.381Z,10.40
2023-04-01T02:30:38.963Z,10.40
2023-04-01T02:33:08.124Z,10.40
2023-04-01T02:35:39.233Z,10.40
2023-04-01T02:38:08.153Z,10.40
2023-04-01T02:40:42.928Z,10.40
2023-04-01T02:43:10.009Z,10.40
2023-04-01T02:45:36.635Z,10.40
2023-04-01T02:48:07.739Z,10.50
2023-04-01T02:50:34.911Z,10.50
2023-04-01T02:53:04.075Z,10.50
2023-04-01T02:55:34.977Z,10.40
2023-04-01T02:58:02.213Z,10.50
2023-04-01T03:00:30.204Z,10.50
2023-04-01T03:02:59.388Z,10.50
2023-04-01T03:05:30.812Z,10.50
2023-04-01T03:07:58.498Z,10.40
2023-04-01T03:10:26.263Z,10.50
2023-04-01T03:12:53.642Z,10.50
2023-04-01T03:15:23.071Z,10.50
2023-04-01T03:17:52.865Z,10.50
2023-04-01T03:20:32.716Z,10.40
2023-04-01T03:22:59.506Z,10.40
2023-04-01T03:25:31.080Z,10.40
2023-04-01T03:28:03.447Z,10.40
2023-04-01T03:30:40.499Z,10.40
2023-04-01T03:33:07.840Z,10.30
2023-04-01T03:35:36.287Z,10.30
2023-04-01T03:38:03.355Z,10.30
2023-04-01T03:40:37.506Z,10.30
2023-04-01T03:43:08.542Z,10.30
2023-04-01T03:45:47.498Z,10.30
2023-04-01T03:48:15.301Z,10.30
2023-04-01T03:50:42.110Z,10.30
2023-04-01T03:53:10.378Z,10.30
2023-04-01T03:55:45.411Z,10.30
2023-04-01T03:58:12.115Z,10.40
2023-04-01T04:00:41.505Z,10.40
2023-04-01T04:03:10.523Z,10.40
2023-04-01T04:06:00.881Z,10.30
2023-04-01T04:08:31.505Z,10.30
2023-04-01T04:10:59.245Z,10.30
2023-04-01T04:13:27.111Z,10.30
2023-04-01T04:16:00.687Z,10.30
2023-04-01T04:18:32.661Z,10.30
2023-04-01T04:20:59.552Z,10.40
2023-04-01T04:23:28.652Z,10.40
2023-04-01T04:26:00.919Z,10.40
2023-04-01T04:28:29.649Z,10.50
2023-04-01T04:31:05.133Z,10.50
2023-04-01T04:33:34.302Z,10.50
2023-04-01T04:36:05.943Z,10.50
2023-04-01T04:38:33.122Z,10.50
2023-04-01T04:43:56.767Z,10.50
2023-04-01T04:46:26.841Z,10.60
2023-04-01T04:49:00.553Z,10.50
2023-04-01T04:51:27.372Z,10.50
2023-04-01T04:53:56.315Z,10.50
2023-04-01T04:56:38.047Z,10.50
2023-04-01T04:59:07.858Z,10.50
2023-04-01T05:02:16.344Z,10.50
2023-04-01T05:04:43.173Z,10.60
2023-04-01T05:07:12.174Z,10.50
2023-04-01T05:12:39.181Z,10.60
2023-04-01T05:15:09.039Z,10.60
2023-04-01T05:17:38.731Z,10.50
2023-04-01T05:20:35.051Z,10.60
2023-04-01T05:23:30.517Z,10.60
2023-04-01T05:26:16.844Z,10.60
2023-04-01T05:28:56.861Z,10.60
2023-04-01T05:31:35.548Z,10.60
2023-04-01T05:34:05.919Z,10.60
2023-04-01T05:36:33.395Z,10.60
2023-04-01T05:39:27.591Z,10.60
2023-04-01T05:42:00.826Z,10.50
2023-04-01T05:44:27.547Z,10.60
2023-04-01T05:47:21.724Z,10.60
2023-04-01T05:49:49.266Z,10.50
2023-04-01T05:52:24.029Z,10.50
2023-04-01T05:54:50.784Z,10.50
2023-04-01T05:57:18.127Z,10.50
2023-04-01T05:59:46.142Z,10.40
2023-04-01T06:02:18.999Z,10.40
2023-04-01T06:04:50.373Z,10.30
2023-04-01T06:07:20.642Z,10.30
2023-04-01T06:09:47.321Z,10.20
2023-04-01T06:12:28.487Z,10.20
2023-04-01T06:15:15.203Z,10.20
2023-04-01T06:17:50.023Z,10.10
2023-04-01T06:20:30.705Z,10.00
2023-04-01T06:23:35.903Z,10.00
2023-04-01T06:26:13.086Z,9.90
2023-04-01T06:28:45.785Z,9.90
2023-04-01T06:31:12.514Z,9.80
2023-04-01T06:33:47.101Z,9.80
2023-04-01T06:36:35.821Z,9.80
2023-04-01T06:39:41.540Z,9.80
2023-04-01T06:42:30.548Z,9.80
2023-04-01T06:45:41.955Z,9.80
2023-04-01T06:49:14.882Z,9.80
2023-04-01T06:52:23.192Z,9.90
2023-04-01T06:55:14.405Z,9.90
2023-04-01T06:58:26.838Z,9.90
2023-04-01T07:01:00.167Z,9.90
2023-04-01T07:03:39.240Z,9.90
2023-04-01T07:06:23.855Z,9.90
2023-04-01T07:09:04.138Z,9.90
2023-04-01T07:12:04.168Z,9.90
2023-04-01T07:15:01.949Z,10.00
2023-04-01T07:17:37.930Z,10.00
2023-04-01T07:20:18.133Z,10.00
2023-04-01T07:22:54.557Z,10.00
2023-04-01T07:25:38.276Z,10.00
2023-04-01T07:28:45.639Z,10.00
2023-04-01T07:31:49.288Z,10.00
2023-04-01T07:34:46.449Z,10.00
2023-04-01T07:37:37.640Z,9.90
2023-04-01T07:40:29.834Z,9.90
2023-04-01T07:43:23.024Z,9.90
2023-04-01T07:46:33.613Z,9.80
2023-04-01T07:49:19.769Z,9.90
2023-04-01T07:52:17.400Z,9.80
2023-04-01T07:55:06.835Z,9.80
2023-04-01T07:58:09.870Z,9.80
2023-04-01T08:00:56.813Z,9.80
2023-04-01T08:04:15.629Z,9.80
2023-04-01T08:06:53.279Z,9.70
2023-04-01T08:09:32.014Z,9.60
2023-04-01T08:12:37.800Z,9.60
2023-04-01T08:15:42.947Z,9.60
2023-04-01T08:18:52.123Z,9.60
2023-04-01T08:21:29.017Z,9.60
2023-04-01T08:24:08.606Z,9.60
2023-04-01T08:26:46.945Z,9.60
2023-04-01T08:29:22.869Z,9.70
2023-04-01T08:31:52.575Z,9.70
2023-04-01T08:34:33.670Z,9.80
2023-04-01T08:37:23.002Z,9.80
2023-04-01T08:43:20.489Z,10.10
2023-04-01T08:46:01.884Z,10.20
2023-04-01T08:48:42.036Z,10.20
2023-04-01T08:51:16.044Z,10.30
2023-04-01T08:54:05.608Z,10.40
2023-04-01T08:56:35.476Z,10.50
2023-04-01T08:59:13.878Z,10.60
2023-04-01T09:01:58.886Z,10.70
2023-04-01T09:05:09.421Z,10.70
2023-04-01T09:07:55.051Z,10.70
2023-04-01T09:10:36.026Z,10.80
2023-04-01T09:13:51.394Z,10.70
2023-04-01T09:16:59.951Z,10.80
2023-04-01T09:19:48.036Z,10.90
2023-04-01T09:22:29.897Z,10.90
2023-04-01T09:25:16.177Z,10.80
2023-04-01T09:27:46.287Z,10.80
2023-04-01T09:30:51.803Z,10.80
2023-04-01T09:33:58.222Z,10.80
2023-04-01T09:36:45.705Z,10.70
2023-04-01T09:39:45.958Z,10.70
2023-04-01T09:42:27.536Z,10.70
2023-04-01T09:45:49.618Z,10.70
2023-04-01T09:48:50.704Z,10.60
2023-04-01T09:51:32.001Z,10.60
2023-04-01T09:54:26.755Z,10.70
2023-04-01T09:57:47.916Z,10.70
2023-04-01T10:01:07.820Z,10.70
2023-04-01T10:04:22.704Z,10.80
2023-04-01T10:07:24.126Z,10.80
2023-04-01T10:10:21.952Z,10.80
2023-04-01T10:13:00.640Z,10.80
2023-04-01T10:15:30.265Z,10.80
2023-04-01T10:18:18.688Z,10.80
2023-04-01T10:21:13.019Z,10.90
2023-04-01T10:23:56.196Z,10.90
2023-04-01T10:27:23.709Z,10.90
2023-04-01T10:30:45.703Z,10.90
2023-04-01T10:33:54.619Z,10.90
2023-04-01T10:36:57.076Z,10.90
2023-04-01T10:39:54.640Z,11.00
2023-04-01T10:42:45.390Z,10.90
2023-04-01T10:45:34.046Z,10.90
2023-04-01T10:48:37.402Z,10.90
2023-04-01T10:51:27.069Z,10.90
2023-04-01T10:53:58.847Z,10.90
2023-04-01T10:57:16.117Z,10.80
2023-04-01T11:00:43.657Z,10.80
2023-04-01T11:03:42.109Z,10.70
2023-04-01T11:06:35.769Z,10.70
2023-04-01T11:09:52.628Z,10.70
2023-04-01T11:12:41.501Z,10.80
2023-04-01T11:15:32.800Z,10.90
2023-04-01T11:18:38.674Z,10.90
2023-04-01T11:21:46.813Z,11.00
2023-04-01T11:24:56.161Z,11.10
2023-04-01T11:28:21.491Z,11.10
2023-04-01T11:31:11.174Z,11.00
2023-04-01T11:33:56.223Z,10.90
2023-04-01T11:36:49.307Z,10.90
2023-04-01T11:40:00.159Z,10.90
2023-04-01T11:42:50.256Z,11.00
2023-04-01T11:45:45.897Z,10.90
2023-04-01T11:48:35.545Z,10.80
2023-04-01T11:55:50.569Z,10.70
2023-04-01T11:58:54.357Z,10.70
2023-04-01T12:01:33.886Z,10.70
2023-04-01T12:04:30.879Z,10.70
2023-04-01T12:07:25.529Z,10.70
2023-04-01T12:10:13.014Z,10.70
2023-04-01T12:13:09.781Z,10.70
2023-04-01T12:16:06.799Z,10.70
2023-04-01T12:25:00.833Z,10.70
2023-04-01T12:27:43.164Z,10.70
2023-04-01T12:30:50.260Z,10.70
2023-04-01T12:33:16.993Z,10.70
2023-04-01T12:35:59.246Z,10.60
2023-04-01T12:38:38.949Z,10.60
2023-04-01T12:41:42.205Z,10.50
2023-04-01T12:44:36.188Z,10.50
2023-04-01T12:47:37.214Z,10.50
2023-04-01T12:50:42.654Z,10.30
2023-04-01T12:53:21.007Z,10.30
2023-04-01T12:55:52.901Z,10.20
2023-04-01T12:58:40.995Z,10.20
2023-04-01T13:01:30.324Z,10.20
2023-04-01T13:04:35.812Z,10.30
2023-04-01T13:07:30.700Z,10.30
2023-04-01T13:10:05.427Z,10.30
2023-04-01T13:12:41.138Z,10.20
2023-04-01T13:15:21.934Z,10.20
2023-04-01T13:18:07.320Z,10.10
2023-04-01T13:20:50.866Z,10.10
2023-04-01T13:23:42.445Z,10.10
2023-04-01T13:29:58.604Z,10.10
2023-04-01T13:35:44.531Z,10.20
2023-04-01T13:45:21.646Z,10.30
2023-04-01T13:48:21.679Z,10.30
2023-04-01T14:09:36.454Z,10.30
2023-04-01T14:48:04.087Z,10.80
2023-04-01T14:59:29.067Z,10.80
2023-04-01T15:02:03.612Z,10.70
2023-04-01T15:05:18.648Z,10.70
2023-04-01T15:07:51.437Z,10.70
2023-04-01T15:10:56.706Z,10.70
2023-04-01T15:13:57.643Z,10.70
2023-04-01T15:16:24.476Z,10.80
2023-04-01T15:19:04.982Z,10.80
2023-04-01T15:22:18.541Z,10.80
2023-04-01T15:24:48.220Z,10.90
2023-04-01T15:27:21.818Z,10.90
2023-04-01T15:30:01.439Z,10.80
2023-04-01T15:32:31.602Z,10.80
2023-04-01T15:35:21.704Z,10.80
2023-04-01T15:38:02.871Z,10.80
2023-04-01T15:43:28.551Z,11.00
2023-04-01T15:49:13.749Z,11.10
2023-04-01T16:13:15.877Z,10.90
2023-04-01T16:16:31.297Z,10.80
2023-04-01T17:32:55.422Z,10.40
2023-04-01T17:45:28.871Z,10.20
2023-04-01T17:48:28.497Z,10.20
2023-04-01T18:25:21.828Z,10.00
2023-04-01T18:49:05.066Z,9.90
2023-04-01T19:14:56.389Z,9.80
2023-04-01T19:24:29.995Z,9.80
2023-04-01T20:05:00.264Z,10.10
2023-04-01T20:26:08.079Z,10.10
2023-04-01T20:55:13.062Z,9.90
2023-04-01T21:04:31.066Z,9.90
2023-04-01T21:07:47.064Z,9.90
2023-04-01T21:32:00.307Z,9.90
2023-04-01T21:35:19.025Z,9.80
2023-04-01T21:38:26.077Z,9.90
2023-04-01T21:41:07.602Z,9.90
2023-04-01T21:43:37.346Z,9.90
2023-04-01T21:46:13.264Z,9.80
2023-04-01T21:49:07.322Z,9.90
2023-04-01T21:52:07.096Z,9.90
2023-04-01T21:55:08.359Z,9.90
2023-04-01T21:58:04.010Z,9.90
2023-04-01T22:01:20.303Z,9.90
2023-04-01T22:04:26.934Z,9.90
2023-04-01T22:07:09.287Z,9.80
2023-04-01T22:09:41.719Z,9.90
2023-04-01T22:12:18.431Z,9.90
2023-04-01T22:14:58.442Z,9.90
2023-04-01T22:17:47.623Z,9.90
2023-04-01T22:20:38.611Z,9.90
2023-04-01T22:23:30.029Z,9.90
2023-04-01T22:30:11.124Z,9.90
2023-04-01T22:32:43.815Z,9.90
2023-04-01T22:35:34.771Z,9.90
2023-04-01T22:38:13.146Z,9.90
2023-04-01T22:41:24.517Z,9.90
2023-04-01T22:43:52.122Z,9.90
2023-04-01T22:46:36.597Z,9.90
2023-04-01T22:49:22.796Z,10.00
2023-04-01T22:52:11.274Z,10.00
2023-04-01T22:55:03.068Z,9.90
2023-04-01T22:57:53.177Z,9.90
2023-04-01T23:00:48.712Z,9.90
2023-04-01T23:03:32.822Z,9.90
2023-04-01T23:06:07.652Z,9.90
2023-04-01T23:08:56.219Z,9.90
2023-04-01T23:26:55.315Z,9.90
2023-04-01T23:29:26.245Z,10.00
2023-04-01T23:32:26.615Z,10.00
2023-04-01T23:35:00.409Z,10.00
2023-04-01T23:37:28.873Z,10.00
2023-04-01T23:39:58.570Z,10.00
2023-04-01T23:42:40.734Z,10.00
2023-04-01T23:45:20.823Z,9.90
2023-04-01T23:47:52.157Z,9.90
2023-04-01T23:50:24.479Z,9.90
2023-04-01T23:53:10.258Z,9.80
2023-04-01T23:55:42.206Z,9.70
